Time,TemperatureF,DewpointF,PressureIn,WindDirection,WindDirectionDegrees,WindSpeedMPH,WindSpeedGustMPH,Humidity,HourlyPrecipIn,Conditions,Clouds,dailyrainin,SoftwareType,DateUTC
2013-05-12 00:01:00,40.7,27.0,29.91,ESE,113,6.3,7.6,58,0.00,,,0.00,WUHU216HW,2013-05-12 05:01:00,
2013-05-12 00:06:00,40.9,27.2,29.92,WNW,293,4.7,7.6,58,0.00,,,0.00,WUHU216HW,2013-05-12 05:06:00,
2013-05-12 00:11:00,40.9,27.2,29.92,North,0,4.7,7.6,58,0.00,,,0.00,WUHU216HW,2013-05-12 05:11:00,
2013-05-12 00:16:00,40.7,27.0,29.92,West,270,5.8,6.7,58,0.00,,,0.00,WUHU216HW,2013-05-12 05:16:00,
2013-05-12 00:21:00,40.7,26.6,29.91,NE,45,8.5,8.5,57,0.00,,,0.00,WUHU216HW,2013-05-12 05:21:00,
2013-05-12 00:26:00,40.7,27.0,29.92,NE,45,4.7,8.5,58,0.00,,,0.00,WUHU216HW,2013-05-12 05:26:00,
2013-05-12 00:31:00,40.7,26.6,29.91,ESE,113,8.1,8.1,57,0.00,,,0.00,WUHU216HW,2013-05-12 05:31:00,
2013-05-12 00:36:00,40.7,26.6,29.92,SSE,158,6.3,8.5,57,0.00,,,0.00,WUHU216HW,2013-05-12 05:36:00,
2013-05-12 00:41:00,40.5,25.9,29.92,SW,225,5.4,8.5,56,0.00,,,0.00,WUHU216HW,2013-05-12 05:41:00,
2013-05-12 00:46:00,40.3,25.3,29.92,NW,315,5.4,7.6,55,0.00,,,0.00,WUHU216HW,2013-05-12 05:46:00,
2013-05-12 00:51:00,40.0,25.0,29.92,ESE,113,7.8,9.6,55,0.00,,,0.00,WUHU216HW,2013-05-12 05:51:00,
2013-05-12 00:56:00,39.8,25.3,29.92,ESE,113,6.0,9.6,56,0.00,,,0.00,WUHU216HW,2013-05-12 05:56:00,
2013-05-12 01:01:00,39.6,25.1,29.92,NE,45,4.5,6.7,56,0.00,,,0.00,WUHU216HW,2013-05-12 06:01:00,
2013-05-12 01:06:00,39.4,24.9,29.92,NW,315,5.1,6.7,56,0.00,,,0.00,WUHU216HW,2013-05-12 06:06:00,
2013-05-12 01:11:00,39.2,24.8,29.92,North,0,6.9,8.1,56,0.00,,,0.00,WUHU216HW,2013-05-12 06:11:00,
2013-05-12 01:16:00,39.2,24.8,29.92,NE,45,5.8,8.1,56,0.00,,,0.00,WUHU216HW,2013-05-12 06:16:00,
2013-05-12 01:21:00,38.9,24.8,29.92,SSE,158,6.3,6.9,57,0.00,,,0.00,WUHU216HW,2013-05-12 06:21:00,
2013-05-12 01:26:00,38.7,24.7,29.92,WNW,293,5.6,6.9,57,0.00,,,0.00,WUHU216HW,2013-05-12 06:26:00,
2013-05-12 01:31:00,38.5,24.5,29.93,East,90,4.0,5.6,57,0.00,,,0.00,WUHU216HW,2013-05-12 06:31:00,
2013-05-12 01:36:00,38.2,24.7,29.93,NNW,338,3.4,6.3,58,0.00,,,0.00,WUHU216HW,2013-05-12 06:36:00,
2013-05-12 01:41:00,38.2,25.0,29.93,SW,225,3.6,6.3,59,0.00,,,0.00,WUHU216HW,2013-05-12 06:41:00,
2013-05-12 01:46:00,38.0,25.3,29.93,NE,45,3.8,6.0,60,0.00,,,0.00,WUHU216HW,2013-05-12 06:46:00,
2013-05-12 01:51:00,37.8,25.2,29.93,North,0,4.5,5.4,60,0.00,,,0.00,WUHU216HW,2013-05-12 06:51:00,
2013-05-12 01:56:00,37.8,25.6,29.93,NW,315,2.5,7.2,61,0.00,,,0.00,WUHU216HW,2013-05-12 06:56:00,
2013-05-12 02:01:00,37.8,25.6,29.93,NNW,338,2.5,7.2,61,0.00,,,0.00,WUHU216HW,2013-05-12 07:01:00,
2013-05-12 02:06:00,37.6,25.0,29.93,NW,315,2.9,5.4,60,0.00,,,0.00,WUHU216HW,2013-05-12 07:06:00,
2013-05-12 02:11:00,37.4,25.2,29.93,NNW,338,4.5,4.7,61,0.00,,,0.00,WUHU216HW,2013-05-12 07:11:00,
2013-05-12 02:16:00,37.3,25.5,29.93,South,180,4.0,4.7,62,0.00,,,0.00,WUHU216HW,2013-05-12 07:16:00,
2013-05-12 02:21:00,37.1,25.3,29.93,North,0,3.4,4.5,62,0.00,,,0.00,WUHU216HW,2013-05-12 07:21:00,
2013-05-12 02:26:00,37.1,25.3,29.93,SSW,203,4.0,5.1,62,0.00,,,0.00,WUHU216HW,2013-05-12 07:26:00,
2013-05-12 02:31:00,37.1,25.3,29.93,ENE,68,4.0,5.1,62,0.00,,,0.00,WUHU216HW,2013-05-12 07:31:00,
2013-05-12 02:36:00,36.7,24.9,29.93,SW,225,3.8,4.9,62,0.00,,,0.00,WUHU216HW,2013-05-12 07:36:00,
2013-05-12 02:41:00,36.5,25.1,29.93,North,0,3.1,4.9,63,0.00,,,0.00,WUHU216HW,2013-05-12 07:41:00,
2013-05-12 02:46:00,36.5,25.1,29.93,WSW,248,3.8,5.4,63,0.00,,,0.00,WUHU216HW,2013-05-12 07:46:00,
2013-05-12 02:51:00,36.4,25.4,29.93,North,0,5.4,5.4,64,0.00,,,0.00,WUHU216HW,2013-05-12 07:51:00,
2013-05-12 02:55:00,36.4,25.4,29.93,South,180,4.3,5.4,64,0.00,,,0.00,WUHU216HW,2013-05-12 07:55:00,
2013-05-12 03:00:00,36.4,25.4,29.93,SW,225,2.7,4.7,64,0.00,,,0.00,WUHU216HW,2013-05-12 08:00:00,
2013-05-12 03:05:00,36.4,25.4,29.93,SW,225,3.4,5.8,64,0.00,,,0.00,WUHU216HW,2013-05-12 08:05:00,
2013-05-12 03:10:00,36.2,25.2,29.93,North,0,3.8,5.8,64,0.00,,,0.00,WUHU216HW,2013-05-12 08:10:00,
2013-05-12 03:15:00,36.0,25.0,29.93,West,270,3.1,4.5,64,0.00,,,0.00,WUHU216HW,2013-05-12 08:15:00,
2013-05-12 03:20:00,35.8,24.9,29.93,ESE,113,2.5,4.0,64,0.00,,,0.00,WUHU216HW,2013-05-12 08:20:00,
2013-05-12 03:25:00,35.6,24.7,29.93,SE,135,1.8,4.0,64,0.00,,,0.00,WUHU216HW,2013-05-12 08:25:00,
2013-05-12 03:30:00,35.5,24.8,29.93,NW,315,2.5,3.8,65,0.00,,,0.00,WUHU216HW,2013-05-12 08:30:00,
2013-05-12 03:35:00,35.1,24.5,29.93,ESE,113,2.9,3.8,65,0.00,,,0.00,WUHU216HW,2013-05-12 08:35:00,
2013-05-12 03:40:00,35.1,24.5,29.93,South,180,2.7,3.4,65,0.00,,,0.00,WUHU216HW,2013-05-12 08:40:00,
2013-05-12 03:45:00,34.9,24.7,29.93,NE,45,4.0,4.0,66,0.00,,,0.00,WUHU216HW,2013-05-12 08:45:00,
2013-05-12 03:50:00,34.9,24.7,29.93,SW,225,4.7,4.7,66,0.00,,,0.00,WUHU216HW,2013-05-12 08:50:00,
2013-05-12 03:55:00,35.1,25.2,29.93,WNW,293,5.6,5.6,67,0.00,,,0.00,WUHU216HW,2013-05-12 08:55:00,
2013-05-12 04:00:00,35.3,25.4,29.94,WNW,293,2.9,5.6,67,0.00,,,0.00,WUHU216HW,2013-05-12 09:00:00,
2013-05-12 04:05:00,35.3,25.4,29.93,SW,225,3.4,5.4,67,0.00,,,0.00,WUHU216HW,2013-05-12 09:05:00,
2013-05-12 04:10:00,35.3,25.4,29.94,SE,135,4.7,5.6,67,0.00,,,0.00,WUHU216HW,2013-05-12 09:10:00,
2013-05-12 04:15:00,35.1,24.8,29.94,NW,315,3.6,5.6,66,0.00,,,0.00,WUHU216HW,2013-05-12 09:15:00,
2013-05-12 04:20:00,35.1,24.8,29.94,West,270,4.3,4.3,66,0.00,,,0.00,WUHU216HW,2013-05-12 09:20:00,
2013-05-12 04:25:00,34.9,24.7,29.94,South,180,3.6,4.3,66,0.00,,,0.00,WUHU216HW,2013-05-12 09:25:00,
2013-05-12 04:30:00,34.7,24.5,29.94,ENE,68,2.5,3.6,66,0.00,,,0.00,WUHU216HW,2013-05-12 09:30:00,
2013-05-12 04:35:00,34.6,24.7,29.94,NW,315,2.9,4.7,67,0.00,,,0.00,WUHU216HW,2013-05-12 09:35:00,
2013-05-12 04:40:00,34.6,24.7,29.94,South,180,5.4,5.4,67,0.00,,,0.00,WUHU216HW,2013-05-12 09:40:00,
2013-05-12 04:45:00,34.6,24.7,29.94,WNW,293,3.4,5.4,67,0.00,,,0.00,WUHU216HW,2013-05-12 09:45:00,
2013-05-12 04:50:00,34.4,24.5,29.94,West,270,4.0,4.0,67,0.00,,,0.00,WUHU216HW,2013-05-12 09:50:00,
2013-05-12 04:55:00,34.4,24.5,29.94,South,180,3.4,4.7,67,0.00,,,0.00,WUHU216HW,2013-05-12 09:55:00,
2013-05-12 05:00:00,34.6,24.7,29.94,South,180,4.5,6.3,67,0.00,,,0.00,WUHU216HW,2013-05-12 10:00:00,
2013-05-12 05:05:00,34.6,24.7,29.94,NW,315,4.0,6.3,67,0.00,,,0.00,WUHU216HW,2013-05-12 10:05:00,
2013-05-12 05:10:00,34.4,24.5,29.94,NW,315,6.3,6.3,67,0.00,,,0.00,WUHU216HW,2013-05-12 10:10:00,
2013-05-12 05:15:00,34.2,24.3,29.94,SSE,158,2.9,6.3,67,0.00,,,0.00,WUHU216HW,2013-05-12 10:15:00,
2013-05-12 05:20:00,34.2,24.3,29.94,SW,225,3.1,4.0,67,0.00,,,0.00,WUHU216HW,2013-05-12 10:20:00,
2013-05-12 05:25:00,34.0,24.1,29.94,SSW,203,2.2,4.0,67,0.00,,,0.00,WUHU216HW,2013-05-12 10:25:00,
2013-05-12 05:30:00,33.8,23.9,29.95,NW,315,2.5,4.0,67,0.00,,,0.00,WUHU216HW,2013-05-12 10:30:00,
2013-05-12 05:35:00,33.7,24.1,29.95,ESE,113,3.4,4.7,68,0.00,,,0.00,WUHU216HW,2013-05-12 10:35:00,
2013-05-12 05:40:00,33.5,23.9,29.95,North,0,3.4,4.7,68,0.00,,,0.00,WUHU216HW,2013-05-12 10:40:00,
2013-05-12 05:45:00,33.5,23.9,29.95,NE,45,4.0,4.0,68,0.00,,,0.00,WUHU216HW,2013-05-12 10:45:00,
2013-05-12 05:50:00,33.5,23.9,29.96,NW,315,3.4,4.0,68,0.00,,,0.00,WUHU216HW,2013-05-12 10:50:00,
2013-05-12 05:55:00,33.3,23.9,29.96,WSW,248,1.8,4.0,68,0.00,,,0.00,WUHU216HW,2013-05-12 10:55:00,
2013-05-12 06:00:00,33.3,23.9,29.96,West,270,3.1,3.6,68,0.00,,,0.00,WUHU216HW,2013-05-12 11:00:00,
2013-05-12 06:05:00,33.3,24.2,29.96,SE,135,3.4,3.8,69,0.00,,,0.00,WUHU216HW,2013-05-12 11:05:00,
2013-05-12 06:10:00,33.5,24.3,29.96,SW,225,2.5,3.8,69,0.00,,,0.00,WUHU216HW,2013-05-12 11:10:00,
2013-05-12 06:15:00,33.7,24.5,29.96,North,0,3.4,4.3,69,0.00,,,0.00,WUHU216HW,2013-05-12 11:15:00,
2013-05-12 06:20:00,33.7,24.5,29.96,SE,135,4.3,4.7,69,0.00,,,0.00,WUHU216HW,2013-05-12 11:20:00,
2013-05-12 06:25:00,33.8,24.7,29.96,WNW,293,2.7,4.7,69,0.00,,,0.00,WUHU216HW,2013-05-12 11:25:00,
2013-05-12 06:30:00,34.0,24.8,29.96,ESE,113,3.6,4.0,69,0.00,,,0.00,WUHU216HW,2013-05-12 11:30:00,
2013-05-12 06:35:00,34.2,25.0,29.96,SE,135,3.1,5.4,69,0.00,,,0.00,WUHU216HW,2013-05-12 11:35:00,
2013-05-12 06:40:00,34.2,25.0,29.96,SSE,158,3.1,5.4,69,0.00,,,0.00,WUHU216HW,2013-05-12 11:40:00,
2013-05-12 06:45:00,34.4,25.6,29.96,WNW,293,4.0,5.6,70,0.00,,,0.00,WUHU216HW,2013-05-12 11:45:00,
2013-05-12 06:50:00,34.6,25.7,29.96,East,90,5.6,5.6,70,0.00,,,0.00,WUHU216HW,2013-05-12 11:50:00,
2013-05-12 06:55:00,34.7,25.9,29.96,South,180,5.6,5.6,70,0.00,,,0.00,WUHU216HW,2013-05-12 11:55:00,
2013-05-12 07:00:00,34.9,26.1,29.96,East,90,5.8,6.3,70,0.00,,,0.00,WUHU216HW,2013-05-12 12:00:00,
2013-05-12 07:05:00,35.1,25.9,29.97,ESE,113,5.1,8.1,69,0.00,,,0.00,WUHU216HW,2013-05-12 12:05:00,
2013-05-12 07:10:00,35.5,25.9,29.97,SE,135,6.9,8.1,68,0.00,,,0.00,WUHU216HW,2013-05-12 12:10:00,
2013-05-12 07:15:00,35.6,25.7,29.97,NE,45,7.6,7.6,67,0.00,,,0.00,WUHU216HW,2013-05-12 12:15:00,
2013-05-12 07:20:00,36.0,26.1,29.97,West,270,5.1,7.6,67,0.00,,,0.00,WUHU216HW,2013-05-12 12:20:00,
2013-05-12 07:25:00,36.0,26.1,29.97,WNW,293,4.5,7.4,67,0.00,,,0.00,WUHU216HW,2013-05-12 12:25:00,
2013-05-12 07:30:00,36.4,26.5,29.97,SSE,158,9.2,9.2,67,0.00,,,0.00,WUHU216HW,2013-05-12 12:30:00,
2013-05-12 07:35:00,36.4,26.5,29.97,ESE,113,7.8,9.2,67,0.00,,,0.00,WUHU216HW,2013-05-12 12:35:00,
2013-05-12 07:40:00,36.4,26.1,29.97,WNW,293,4.3,7.8,66,0.00,,,0.00,WUHU216HW,2013-05-12 12:40:00,
2013-05-12 07:45:00,36.5,25.9,29.97,ESE,113,3.8,9.4,65,0.00,,,0.00,WUHU216HW,2013-05-12 12:45:00,
2013-05-12 07:50:00,36.7,26.0,29.97,ESE,113,6.0,9.4,65,0.00,,,0.00,WUHU216HW,2013-05-12 12:50:00,
2013-05-12 07:55:00,36.7,25.7,29.97,ESE,113,3.8,6.3,64,0.00,,,0.00,WUHU216HW,2013-05-12 12:55:00,
2013-05-12 08:00:00,36.9,26.2,29.97,North,0,4.7,6.9,65,0.00,,,0.00,WUHU216HW,2013-05-12 13:00:00,
2013-05-12 08:05:00,37.1,26.0,29.97,NW,315,3.1,6.9,64,0.00,,,0.00,WUHU216HW,2013-05-12 13:05:00,
2013-05-12 08:10:00,37.1,26.0,29.97,SE,135,5.8,6.7,64,0.00,,,0.00,WUHU216HW,2013-05-12 13:10:00,
2013-05-12 08:15:00,37.3,25.8,29.97,East,90,3.6,7.6,63,0.00,,,0.00,WUHU216HW,2013-05-12 13:15:00,
2013-05-12 08:20:00,37.4,25.6,29.97,NNW,338,1.8,7.6,62,0.00,,,0.00,WUHU216HW,2013-05-12 13:20:00,
2013-05-12 08:25:00,37.4,25.6,29.98,SW,225,4.3,6.7,62,0.00,,,0.00,WUHU216HW,2013-05-12 13:25:00,
2013-05-12 08:30:00,37.8,26.3,29.98,South,180,5.8,6.7,63,0.00,,,0.00,WUHU216HW,2013-05-12 13:30:00,
2013-05-12 08:35:00,37.8,25.9,29.98,ESE,113,4.0,6.7,62,0.00,,,0.00,WUHU216HW,2013-05-12 13:35:00,
2013-05-12 08:40:00,38.0,26.5,29.97,NNE,23,2.2,9.2,63,0.00,,,0.00,WUHU216HW,2013-05-12 13:40:00,
2013-05-12 08:45:00,38.3,26.4,29.98,NNW,338,3.8,9.2,62,0.00,,,0.00,WUHU216HW,2013-05-12 13:45:00,
2013-05-12 08:50:00,38.5,26.6,29.98,South,180,5.1,7.8,62,0.00,,,0.00,WUHU216HW,2013-05-12 13:50:00,
2013-05-12 08:55:00,38.7,26.7,29.98,NNW,338,4.9,7.8,62,0.00,,,0.00,WUHU216HW,2013-05-12 13:55:00,
2013-05-12 09:00:00,38.5,26.2,29.98,SW,225,7.6,7.6,61,0.00,,,0.00,WUHU216HW,2013-05-12 14:00:00,
2013-05-12 09:05:00,38.5,26.2,29.98,ESE,113,3.4,7.6,61,0.00,,,0.00,WUHU216HW,2013-05-12 14:05:00,
2013-05-12 09:10:00,39.1,26.6,29.98,North,0,6.3,6.7,61,0.00,,,0.00,WUHU216HW,2013-05-12 14:10:00,
2013-05-12 09:15:00,39.4,27.0,29.98,ENE,68,6.3,7.6,61,0.00,,,0.00,WUHU216HW,2013-05-12 14:15:00,
2013-05-12 09:19:00,39.8,27.0,29.98,South,180,3.6,7.6,60,0.00,,,0.00,WUHU216HW,2013-05-12 14:19:00,
2013-05-12 09:24:00,39.8,27.0,29.98,SW,225,6.5,6.5,60,0.00,,,0.00,WUHU216HW,2013-05-12 14:24:00,
2013-05-12 09:29:00,40.0,27.2,29.98,ESE,113,7.6,8.5,60,0.00,,,0.00,WUHU216HW,2013-05-12 14:29:00,
2013-05-12 09:34:00,40.1,27.4,29.98,SSW,203,4.0,8.5,60,0.00,,,0.00,WUHU216HW,2013-05-12 14:34:00,
2013-05-12 09:39:00,40.5,27.7,29.98,SSE,158,6.0,6.3,60,0.00,,,0.00,WUHU216HW,2013-05-12 14:39:00,
2013-05-12 09:44:00,40.7,27.0,29.98,NE,45,4.9,6.3,58,0.00,,,0.00,WUHU216HW,2013-05-12 14:44:00,
2013-05-12 09:49:00,40.7,27.0,29.98,North,0,2.2,6.9,58,0.00,,,0.00,WUHU216HW,2013-05-12 14:49:00,
2013-05-12 09:54:00,41.2,27.6,29.98,NE,45,4.9,7.8,58,0.00,,,0.00,WUHU216HW,2013-05-12 14:54:00,
2013-05-12 09:59:00,41.4,27.7,29.98,NW,315,4.0,7.8,58,0.00,,,0.00,WUHU216HW,2013-05-12 14:59:00,
2013-05-12 10:04:00,41.8,27.5,29.98,SW,225,4.3,5.8,57,0.00,,,0.00,WUHU216HW,2013-05-12 15:04:00,
2013-05-12 10:09:00,41.8,27.5,29.98,South,180,4.0,5.8,57,0.00,,,0.00,WUHU216HW,2013-05-12 15:09:00,
2013-05-12 10:14:00,42.1,27.0,29.98,NW,315,2.7,7.8,55,0.00,,,0.00,WUHU216HW,2013-05-12 15:14:00,
2013-05-12 10:19:00,42.1,27.0,29.97,WNW,293,4.3,7.8,55,0.00,,,0.00,WUHU216HW,2013-05-12 15:19:00,
2013-05-12 10:24:00,42.1,27.5,29.97,ESE,113,4.7,6.9,56,0.00,,,0.00,WUHU216HW,2013-05-12 15:24:00,
2013-05-12 10:29:00,42.5,27.4,29.97,SSE,158,5.1,6.9,55,0.00,,,0.00,WUHU216HW,2013-05-12 15:29:00,
2013-05-12 10:34:00,42.5,27.8,29.97,ESE,113,5.4,6.9,56,0.00,,,0.00,WUHU216HW,2013-05-12 15:34:00,
2013-05-12 10:39:00,42.8,28.2,29.98,NNE,23,3.4,5.4,56,0.00,,,0.00,WUHU216HW,2013-05-12 15:39:00,
2013-05-12 10:44:00,43.2,28.1,29.97,North,0,4.7,7.6,55,0.00,,,0.00,WUHU216HW,2013-05-12 15:44:00,
2013-05-12 10:49:00,43.4,27.4,29.97,SW,225,3.8,7.6,53,0.00,,,0.00,WUHU216HW,2013-05-12 15:49:00,
2013-05-12 10:54:00,43.6,27.6,29.97,South,180,4.7,4.7,53,0.00,,,0.00,WUHU216HW,2013-05-12 15:54:00,
2013-05-12 10:59:00,43.7,27.7,29.97,NNW,338,5.4,6.0,53,0.00,,,0.00,WUHU216HW,2013-05-12 15:59:00,
2013-05-12 11:04:00,43.9,27.9,29.97,SW,225,5.1,6.0,53,0.00,,,0.00,WUHU216HW,2013-05-12 16:04:00,
2013-05-12 11:09:00,44.3,27.7,29.97,South,180,6.0,9.2,52,0.00,,,0.00,WUHU216HW,2013-05-12 16:09:00,
2013-05-12 11:14:00,44.6,28.1,29.97,SW,225,7.6,9.2,52,0.00,,,0.00,WUHU216HW,2013-05-12 16:14:00,
2013-05-12 11:19:00,44.8,27.8,29.97,WNW,293,3.1,7.6,51,0.00,,,0.00,WUHU216HW,2013-05-12 16:19:00,
2013-05-12 11:24:00,45.0,27.6,29.97,North,0,2.9,6.5,50,0.00,,,0.00,WUHU216HW,2013-05-12 16:24:00,
2013-05-12 11:29:00,45.0,27.6,29.97,WSW,248,7.6,8.5,50,0.00,,,0.00,WUHU216HW,2013-05-12 16:29:00,
2013-05-12 11:34:00,45.7,26.6,29.97,South,180,6.0,8.5,47,0.00,,,0.00,WUHU216HW,2013-05-12 16:34:00,
2013-05-12 11:39:00,47.0,27.6,29.97,SSE,158,3.8,7.6,47,0.00,,,0.00,WUHU216HW,2013-05-12 16:39:00,
2013-05-12 11:44:00,47.7,27.3,29.96,South,180,6.0,7.6,45,0.00,,,0.00,WUHU216HW,2013-05-12 16:44:00,
2013-05-12 11:49:00,48.6,28.6,29.96,SE,135,4.7,11.0,46,0.00,,,0.00,WUHU216HW,2013-05-12 16:49:00,
2013-05-12 11:54:00,49.7,28.0,29.96,NE,45,8.9,11.0,43,0.00,,,0.00,WUHU216HW,2013-05-12 16:54:00,
2013-05-12 11:59:00,50.0,27.7,29.96,SSE,158,7.4,8.9,42,0.00,,,0.00,WUHU216HW,2013-05-12 16:59:00,
2013-05-12 12:04:00,50.4,28.1,29.96,NW,315,8.7,8.7,42,0.00,,,0.00,WUHU216HW,2013-05-12 17:04:00,
2013-05-12 12:10:00,50.8,28.5,29.96,SW,225,6.9,8.7,42,0.00,,,0.00,WUHU216HW,2013-05-12 17:10:00,
2013-05-12 12:15:00,51.3,29.4,29.96,South,180,4.9,9.8,43,0.00,,,0.00,WUHU216HW,2013-05-12 17:15:00,
2013-05-12 12:20:00,51.8,28.8,29.96,WNW,293,4.5,9.8,41,0.00,,,0.00,WUHU216HW,2013-05-12 17:20:00,
2013-05-12 12:25:00,51.8,29.3,29.95,WNW,293,4.7,7.6,42,0.00,,,0.00,WUHU216HW,2013-05-12 17:25:00,
2013-05-12 12:30:00,52.0,27.1,29.96,ESE,113,4.9,11.2,38,0.00,,,0.00,WUHU216HW,2013-05-12 17:30:00,
2013-05-12 12:35:00,52.4,26.0,29.95,WNW,293,11.9,11.9,36,0.00,,,0.00,WUHU216HW,2013-05-12 17:35:00,
2013-05-12 12:40:00,52.6,28.3,29.95,North,0,6.3,13.0,39,0.00,,,0.00,WUHU216HW,2013-05-12 17:40:00,
2013-05-12 12:45:00,53.5,30.2,29.95,North,0,3.6,13.0,41,0.00,,,0.00,WUHU216HW,2013-05-12 17:45:00,
2013-05-12 12:49:00,54.0,28.8,29.95,SE,135,7.6,11.9,38,0.00,,,0.00,WUHU216HW,2013-05-12 17:49:00,
2013-05-12 12:54:00,54.5,27.3,29.95,SW,225,8.7,11.9,35,0.00,,,0.00,WUHU216HW,2013-05-12 17:54:00,
2013-05-12 12:59:00,54.0,27.5,29.95,North,0,0.7,11.4,36,0.00,,,0.00,WUHU216HW,2013-05-12 17:59:00,
2013-05-12 13:04:00,54.5,27.9,29.95,SW,225,4.5,10.5,36,0.00,,,0.00,WUHU216HW,2013-05-12 18:04:00,
2013-05-12 13:09:00,55.4,28.7,29.95,NE,45,3.6,10.5,36,0.00,,,0.00,WUHU216HW,2013-05-12 18:09:00,
2013-05-12 13:14:00,56.3,29.5,29.94,SE,135,1.8,9.2,36,0.00,,,0.00,WUHU216HW,2013-05-12 18:14:00,
2013-05-12 13:19:00,56.5,28.3,29.94,ESE,113,9.6,9.6,34,0.00,,,0.00,WUHU216HW,2013-05-12 18:19:00,
2013-05-12 13:24:00,56.5,26.8,29.94,SSE,158,8.5,9.6,32,0.00,,,0.00,WUHU216HW,2013-05-12 18:24:00,
2013-05-12 13:29:00,56.3,26.7,29.94,ESE,113,6.9,9.6,32,0.00,,,0.00,WUHU216HW,2013-05-12 18:29:00,
2013-05-12 13:34:00,56.7,26.3,29.94,South,180,8.7,14.1,31,0.00,,,0.00,WUHU216HW,2013-05-12 18:34:00,
2013-05-12 13:39:00,56.7,26.3,29.94,South,180,7.6,14.1,31,0.00,,,0.00,WUHU216HW,2013-05-12 18:39:00,
2013-05-12 13:44:00,57.4,27.6,29.94,SW,225,3.8,8.9,32,0.00,,,0.00,WUHU216HW,2013-05-12 18:44:00,
2013-05-12 13:49:00,58.5,28.6,29.94,North,0,3.4,10.3,32,0.00,,,0.00,WUHU216HW,2013-05-12 18:49:00,
2013-05-12 13:54:00,58.7,29.5,29.94,South,180,4.5,10.3,33,0.00,,,0.00,WUHU216HW,2013-05-12 18:54:00,
2013-05-12 13:59:00,58.5,27.9,29.94,NW,315,9.2,13.4,31,0.00,,,0.00,WUHU216HW,2013-05-12 18:59:00,
2013-05-12 14:04:00,57.8,26.6,29.94,WNW,293,4.0,13.4,30,0.00,,,0.00,WUHU216HW,2013-05-12 19:04:00,
2013-05-12 14:09:00,59.0,28.5,29.93,SW,225,7.4,11.4,31,0.00,,,0.00,WUHU216HW,2013-05-12 19:09:00,
2013-05-12 14:14:00,60.5,27.9,29.94,WNW,293,7.4,9.8,29,0.00,,,0.00,WUHU216HW,2013-05-12 19:14:00,
2013-05-12 14:19:00,60.7,28.1,29.94,NW,315,4.5,9.8,29,0.00,,,0.00,WUHU216HW,2013-05-12 19:19:00,
2013-05-12 14:24:00,60.8,29.2,29.93,NW,315,5.1,8.9,30,0.00,,,0.00,WUHU216HW,2013-05-12 19:24:00,
2013-05-12 14:29:00,61.0,29.4,29.93,NNW,338,4.0,10.1,30,0.00,,,0.00,WUHU216HW,2013-05-12 19:29:00,
2013-05-12 14:34:00,61.7,29.0,29.94,North,0,4.3,10.1,29,0.00,,,0.00,WUHU216HW,2013-05-12 19:34:00,
2013-05-12 14:39:00,61.9,28.2,29.94,NW,315,7.8,9.8,28,0.00,,,0.00,WUHU216HW,2013-05-12 19:39:00,
2013-05-12 14:44:00,61.9,28.2,29.94,WNW,293,7.2,7.8,28,0.00,,,0.00,WUHU216HW,2013-05-12 19:44:00,
2013-05-12 14:49:00,62.5,28.7,29.93,East,90,4.7,8.5,28,0.00,,,0.00,WUHU216HW,2013-05-12 19:49:00,
2013-05-12 14:54:00,62.8,29.0,29.93,ESE,113,6.3,10.3,28,0.00,,,0.00,WUHU216HW,2013-05-12 19:54:00,
2013-05-12 14:59:00,62.6,27.9,29.93,SW,225,7.2,14.5,27,0.00,,,0.00,WUHU216HW,2013-05-12 19:59:00,
2013-05-12 15:04:00,63.0,29.2,29.93,NW,315,3.8,14.5,28,0.00,,,0.00,WUHU216HW,2013-05-12 20:04:00,
2013-05-12 15:09:00,63.5,26.7,29.93,North,0,6.0,11.4,25,0.00,,,0.00,WUHU216HW,2013-05-12 20:09:00,
2013-05-12 15:14:00,63.2,29.4,29.93,ESE,113,5.4,11.4,28,0.00,,,0.00,WUHU216HW,2013-05-12 20:14:00,
2013-05-12 15:19:00,63.4,27.6,29.93,WNW,293,8.1,10.5,26,0.00,,,0.00,WUHU216HW,2013-05-12 20:19:00,
2013-05-12 15:24:00,62.3,24.7,29.93,South,180,8.1,10.5,24,0.00,,,0.00,WUHU216HW,2013-05-12 20:24:00,
2013-05-12 15:29:00,61.9,27.3,29.93,North,0,5.8,10.5,27,0.00,,,0.00,WUHU216HW,2013-05-12 20:29:00,
2013-05-12 15:34:00,62.8,26.1,29.93,North,0,6.5,8.1,25,0.00,,,0.00,WUHU216HW,2013-05-12 20:34:00,
2013-05-12 15:39:00,63.0,28.2,29.92,SE,135,7.8,8.3,27,0.00,,,0.00,WUHU216HW,2013-05-12 20:39:00,
2013-05-12 15:44:00,63.4,27.6,29.92,NW,315,3.4,9.2,26,0.00,,,0.00,WUHU216HW,2013-05-12 20:44:00,
2013-05-12 15:49:00,64.4,28.4,29.93,North,0,3.8,9.2,26,0.00,,,0.00,WUHU216HW,2013-05-12 20:49:00,
2013-05-12 15:54:00,65.2,28.1,29.92,SSE,158,5.4,8.7,25,0.00,,,0.00,WUHU216HW,2013-05-12 20:54:00,
2013-05-12 15:59:00,64.4,27.5,29.92,NW,315,7.2,9.6,25,0.00,,,0.00,WUHU216HW,2013-05-12 20:59:00,
2013-05-12 16:04:00,64.1,27.2,29.92,South,180,5.8,9.6,25,0.00,,,0.00,WUHU216HW,2013-05-12 21:04:00,
2013-05-12 16:09:00,64.3,27.3,29.92,North,0,4.0,13.2,25,0.00,,,0.00,WUHU216HW,2013-05-12 21:09:00,
2013-05-12 16:14:00,64.8,25.7,29.92,South,180,7.8,13.2,23,0.00,,,0.00,WUHU216HW,2013-05-12 21:14:00,
2013-05-12 16:19:00,64.1,27.2,29.92,WNW,293,4.5,9.4,25,0.00,,,0.00,WUHU216HW,2013-05-12 21:19:00,
2013-05-12 16:24:00,64.6,26.7,29.91,WNW,293,8.3,9.2,24,0.00,,,0.00,WUHU216HW,2013-05-12 21:24:00,
2013-05-12 16:29:00,63.4,24.6,29.92,South,180,7.8,9.6,23,0.00,,,0.00,WUHU216HW,2013-05-12 21:29:00,
2013-05-12 16:34:00,63.7,26.8,29.91,WNW,293,11.9,11.9,25,0.00,,,0.00,WUHU216HW,2013-05-12 21:34:00,
2013-05-12 16:39:00,63.7,25.8,29.91,WNW,293,6.5,11.9,24,0.00,,,0.00,WUHU216HW,2013-05-12 21:39:00,
2013-05-12 16:44:00,64.1,27.2,29.91,WNW,293,5.1,11.9,25,0.00,,,0.00,WUHU216HW,2013-05-12 21:44:00,
2013-05-12 16:49:00,64.4,24.5,29.91,WNW,293,8.3,10.1,22,0.00,,,0.00,WUHU216HW,2013-05-12 21:49:00,
2013-05-12 16:54:00,64.1,26.2,29.92,North,0,7.8,9.6,24,0.00,,,0.00,WUHU216HW,2013-05-12 21:54:00,
2013-05-12 16:59:00,63.7,24.8,29.92,NNW,338,6.3,9.6,23,0.00,,,0.00,WUHU216HW,2013-05-12 21:59:00,
2013-05-12 17:04:00,64.6,26.7,29.92,North,0,5.4,9.6,24,0.00,,,0.00,WUHU216HW,2013-05-12 22:04:00,
2013-05-12 17:09:00,64.3,25.3,29.92,ESE,113,5.4,10.7,23,0.00,,,0.00,WUHU216HW,2013-05-12 22:09:00,
2013-05-12 17:14:00,64.4,27.5,29.92,South,180,6.7,10.7,25,0.00,,,0.00,WUHU216HW,2013-05-12 22:14:00,
2013-05-12 17:19:00,64.4,25.5,29.92,SW,225,7.6,11.9,23,0.00,,,0.00,WUHU216HW,2013-05-12 22:19:00,
2013-05-12 17:24:00,63.7,25.8,29.92,ESE,113,4.9,11.9,24,0.00,,,0.00,WUHU216HW,2013-05-12 22:24:00,
2013-05-12 17:29:00,64.6,27.6,29.92,West,270,1.8,10.5,25,0.00,,,0.00,WUHU216HW,2013-05-12 22:29:00,
2013-05-12 17:34:00,65.2,27.1,29.92,South,180,6.5,7.6,24,0.00,,,0.00,WUHU216HW,2013-05-12 22:34:00,
2013-05-12 17:39:00,64.6,25.7,29.92,South,180,5.1,9.2,23,0.00,,,0.00,WUHU216HW,2013-05-12 22:39:00,
2013-05-12 17:44:00,64.6,27.6,29.92,North,0,2.7,9.2,25,0.00,,,0.00,WUHU216HW,2013-05-12 22:44:00,
2013-05-12 17:49:00,65.9,27.6,29.91,SW,225,4.7,6.3,24,0.00,,,0.00,WUHU216HW,2013-05-12 22:49:00,
2013-05-12 17:54:00,64.8,25.7,29.91,SSE,158,5.8,9.2,23,0.00,,,0.00,WUHU216HW,2013-05-12 22:54:00,
2013-05-12 17:59:00,64.3,26.3,29.91,North,0,6.3,9.2,24,0.00,,,0.00,WUHU216HW,2013-05-12 22:59:00,
2013-05-12 18:04:00,64.4,25.5,29.91,SE,135,2.7,6.9,23,0.00,,,0.00,WUHU216HW,2013-05-12 23:04:00,
2013-05-12 18:09:00,62.3,23.7,29.91,SE,135,5.1,8.9,23,0.00,,,0.00,WUHU216HW,2013-05-12 23:09:00,
2013-05-12 18:14:00,62.1,25.5,29.91,SSE,158,3.8,8.9,25,0.00,,,0.00,WUHU216HW,2013-05-12 23:14:00,
2013-05-12 18:19:00,63.0,26.2,29.91,North,0,4.5,7.2,25,0.00,,,0.00,WUHU216HW,2013-05-12 23:19:00,
2013-05-12 18:24:00,62.8,24.1,29.91,SSE,158,8.3,11.6,23,0.00,,,0.00,WUHU216HW,2013-05-12 23:24:00,
2013-05-12 18:29:00,61.6,23.0,29.91,West,270,5.6,11.6,23,0.00,,,0.00,WUHU216HW,2013-05-12 23:29:00,
2013-05-12 18:34:00,61.7,24.2,29.91,SW,225,4.0,9.4,24,0.00,,,0.00,WUHU216HW,2013-05-12 23:34:00,
2013-05-12 18:39:00,62.3,26.6,29.91,SSW,203,3.1,7.8,26,0.00,,,0.00,WUHU216HW,2013-05-12 23:39:00,
2013-05-12 18:44:00,62.3,25.7,29.91,ESE,113,4.7,7.4,25,0.00,,,0.00,WUHU216HW,2013-05-12 23:44:00,
2013-05-12 18:49:00,61.6,24.0,29.91,SW,225,4.0,7.6,24,0.00,,,0.00,WUHU216HW,2013-05-12 23:49:00,
2013-05-12 18:54:00,61.0,23.6,29.91,North,0,3.1,8.5,24,0.00,,,0.00,WUHU216HW,2013-05-12 23:54:00,
2013-05-12 18:59:00,60.5,24.1,29.91,West,270,4.3,8.5,25,0.00,,,0.00,WUHU216HW,2013-05-12 23:59:00,
2013-05-12 19:04:00,60.5,24.1,29.91,North,0,5.6,7.8,25,0.00,,,0.00,WUHU216HW,2013-05-13 00:04:00,
2013-05-12 19:09:00,60.5,25.0,29.91,NW,315,4.5,7.2,26,0.00,,,0.00,WUHU216HW,2013-05-13 00:09:00,
2013-05-12 19:14:00,60.1,23.8,29.91,SE,135,3.6,6.9,25,0.00,,,0.00,WUHU216HW,2013-05-13 00:14:00,
2013-05-12 19:19:00,59.8,25.4,29.91,NW,315,3.4,6.9,27,0.00,,,0.00,WUHU216HW,2013-05-13 00:19:00,
2013-05-12 19:24:00,59.4,25.1,29.91,North,0,3.8,5.6,27,0.00,,,0.00,WUHU216HW,2013-05-13 00:24:00,
2013-05-12 19:29:00,58.9,24.7,29.91,SE,135,4.9,6.3,27,0.00,,,0.00,WUHU216HW,2013-05-13 00:29:00,
2013-05-12 19:34:00,58.1,25.0,29.91,North,0,2.7,6.3,28,0.00,,,0.00,WUHU216HW,2013-05-13 00:34:00,
2013-05-12 19:39:00,58.0,25.8,29.91,SE,135,2.9,5.1,29,0.00,,,0.00,WUHU216HW,2013-05-13 00:39:00,
2013-05-12 19:44:00,57.2,24.2,29.91,ENE,68,2.5,4.5,28,0.00,,,0.00,WUHU216HW,2013-05-13 00:44:00,
2013-05-12 19:49:00,56.3,24.3,29.91,SE,135,1.8,5.1,29,0.00,,,0.00,WUHU216HW,2013-05-13 00:49:00,
2013-05-12 19:54:00,55.4,23.6,29.92,WSW,248,3.4,5.1,29,0.00,,,0.00,WUHU216HW,2013-05-13 00:54:00,
2013-05-12 19:59:00,54.5,23.8,29.91,SE,135,3.8,4.9,30,0.00,,,0.00,WUHU216HW,2013-05-13 00:59:00,
2013-05-12 20:04:00,53.5,23.6,29.92,South,180,2.2,4.9,31,0.00,,,0.00,WUHU216HW,2013-05-13 01:04:00,
2013-05-12 20:09:00,52.2,22.4,29.92,South,180,2.5,4.7,31,0.00,,,0.00,WUHU216HW,2013-05-13 01:09:00,
2013-05-12 20:14:00,51.3,22.3,29.92,SSE,158,2.5,3.6,32,0.00,,,0.00,WUHU216HW,2013-05-13 01:14:00,
2013-05-12 20:19:00,50.4,22.1,29.92,SSE,158,1.8,3.1,33,0.00,,,0.00,WUHU216HW,2013-05-13 01:19:00,
2013-05-12 20:24:00,49.7,21.5,29.92,East,90,1.3,2.9,33,0.00,,,0.00,WUHU216HW,2013-05-13 01:24:00,
2013-05-12 20:29:00,49.0,21.6,29.92,South,180,1.8,2.5,34,0.00,,,0.00,WUHU216HW,2013-05-13 01:29:00,
2013-05-12 20:34:00,48.4,21.2,29.92,South,180,1.6,2.2,34,0.00,,,0.00,WUHU216HW,2013-05-13 01:34:00,
2013-05-12 20:38:00,47.9,20.7,29.93,South,180,1.6,2.2,34,0.00,,,0.00,WUHU216HW,2013-05-13 01:38:00,
2013-05-12 20:43:00,47.5,21.7,29.93,South,180,1.8,2.5,36,0.00,,,0.00,WUHU216HW,2013-05-13 01:43:00,
2013-05-12 20:48:00,47.0,21.3,29.93,South,180,1.3,2.5,36,0.00,,,0.00,WUHU216HW,2013-05-13 01:48:00,
2013-05-12 20:53:00,46.8,21.1,29.93,South,180,1.1,4.0,36,0.00,,,0.00,WUHU216HW,2013-05-13 01:53:00,
2013-05-12 20:58:00,46.4,20.7,29.93,South,180,1.3,4.0,36,0.00,,,0.00,WUHU216HW,2013-05-13 01:58:00,
2013-05-12 21:03:00,46.1,20.4,29.93,South,180,0.4,2.7,36,0.00,,,0.00,WUHU216HW,2013-05-13 02:03:00,
2013-05-12 21:08:00,45.7,20.8,29.93,South,180,0.9,2.7,37,0.00,,,0.00,WUHU216HW,2013-05-13 02:08:00,
2013-05-12 21:13:00,45.5,21.2,29.93,SSW,203,1.8,2.2,38,0.00,,,0.00,WUHU216HW,2013-05-13 02:13:00,
2013-05-12 21:18:00,45.4,21.8,29.93,SSW,203,0.4,2.2,39,0.00,,,0.00,WUHU216HW,2013-05-13 02:18:00,
2013-05-12 21:23:00,45.0,22.2,29.93,SSW,203,0.0,1.1,40,0.00,,,0.00,WUHU216HW,2013-05-13 02:23:00,
2013-05-12 21:28:00,44.6,22.9,29.94,South,180,1.3,1.6,42,0.00,,,0.00,WUHU216HW,2013-05-13 02:28:00,
2013-05-12 21:33:00,44.5,22.7,29.93,SSW,203,0.4,2.0,42,0.00,,,0.00,WUHU216HW,2013-05-13 02:33:00,
2013-05-12 21:38:00,44.3,23.0,29.94,SSW,203,1.1,2.0,43,0.00,,,0.00,WUHU216HW,2013-05-13 02:38:00,
2013-05-12 21:43:00,44.3,23.0,29.94,SW,225,0.4,1.1,43,0.00,,,0.00,WUHU216HW,2013-05-13 02:43:00,
2013-05-12 21:48:00,44.3,22.5,29.94,SW,225,1.6,1.6,42,0.00,,,0.00,WUHU216HW,2013-05-13 02:48:00,
2013-05-12 21:53:00,44.3,22.5,29.94,SW,225,1.1,1.8,42,0.00,,,0.00,WUHU216HW,2013-05-13 02:53:00,
2013-05-12 21:58:00,44.3,22.5,29.94,WSW,248,0.0,1.8,42,0.00,,,0.00,WUHU216HW,2013-05-13 02:58:00,
2013-05-12 22:03:00,44.1,21.9,29.94,North,0,0.0,1.1,41,0.00,,,0.00,WUHU216HW,2013-05-13 03:03:00,
2013-05-12 22:08:00,43.6,21.3,29.94,NNW,338,0.0,0.0,41,0.00,,,0.00,WUHU216HW,2013-05-13 03:08:00,
2013-05-12 22:13:00,42.8,21.2,29.94,NNW,338,0.0,0.0,42,0.00,,,0.00,WUHU216HW,2013-05-13 03:13:00,
2013-05-12 22:18:00,42.3,21.2,29.95,NNW,338,0.0,0.0,43,0.00,,,0.00,WUHU216HW,2013-05-13 03:18:00,
2013-05-12 22:23:00,41.8,21.3,29.95,ESE,113,0.2,0.4,44,0.00,,,0.00,WUHU216HW,2013-05-13 03:23:00,
2013-05-12 22:28:00,41.0,20.6,29.95,ESE,113,0.0,0.4,44,0.00,,,0.00,WUHU216HW,2013-05-13 03:28:00,
2013-05-12 22:33:00,40.5,20.7,29.95,ESE,113,0.0,0.9,45,0.00,,,0.00,WUHU216HW,2013-05-13 03:33:00,
2013-05-12 22:38:00,40.1,20.9,29.95,ESE,113,0.4,0.9,46,0.00,,,0.00,WUHU216HW,2013-05-13 03:38:00,
2013-05-12 22:43:00,40.0,21.3,29.95,ESE,113,0.0,0.4,47,0.00,,,0.00,WUHU216HW,2013-05-13 03:43:00,
2013-05-12 22:48:00,39.6,20.9,29.95,WNW,293,0.0,0.2,47,0.00,,,0.00,WUHU216HW,2013-05-13 03:48:00,
2013-05-12 22:53:00,39.6,21.4,29.95,NW,315,0.4,0.4,48,0.00,,,0.00,WUHU216HW,2013-05-13 03:53:00,
2013-05-12 22:58:00,40.1,21.9,29.94,NW,315,0.4,1.1,48,0.00,,,0.00,WUHU216HW,2013-05-13 03:58:00,
2013-05-12 23:01:00,40.3,22.1,29.94,NNW,338,0.0,1.1,48,0.00,,,0.00,WUHU216HW,2013-05-13 04:01:00,
2013-05-12 23:06:00,40.9,22.1,29.94,NW,315,0.0,0.9,47,0.00,,,0.00,WUHU216HW,2013-05-13 04:06:00,
2013-05-12 23:11:00,40.9,21.5,29.94,NW,315,0.0,0.9,46,0.00,,,0.00,WUHU216HW,2013-05-13 04:11:00,
2013-05-12 23:16:00,41.0,21.7,29.94,NNW,338,1.1,1.1,46,0.00,,,0.00,WUHU216HW,2013-05-13 04:16:00,
2013-05-12 23:21:00,41.4,21.5,29.94,NW,315,1.1,2.7,45,0.00,,,0.00,WUHU216HW,2013-05-13 04:21:00,
2013-05-12 23:26:00,41.8,21.9,29.94,SSW,203,0.4,2.7,45,0.00,,,0.00,WUHU216HW,2013-05-13 04:26:00,
2013-05-12 23:31:00,41.8,21.9,29.95,SSW,203,0.0,2.7,45,0.00,,,0.00,WUHU216HW,2013-05-13 04:31:00,
2013-05-12 23:36:00,41.4,21.5,29.95,SSW,203,0.4,1.1,45,0.00,,,0.00,WUHU216HW,2013-05-13 04:36:00,
2013-05-12 23:41:00,40.7,20.8,29.95,SSW,203,0.0,1.1,45,0.00,,,0.00,WUHU216HW,2013-05-13 04:41:00,
2013-05-12 23:46:00,40.1,20.3,29.95,SSW,203,0.0,0.4,45,0.00,,,0.00,WUHU216HW,2013-05-13 04:46:00,
2013-05-12 23:51:00,39.2,19.5,29.95,SSW,203,0.9,0.9,45,0.00,,,0.00,WUHU216HW,2013-05-13 04:51:00,
2013-05-12 23:56:00,38.7,19.1,29.95,SSW,203,0.0,0.9,45,0.00,,,0.00,WUHU216HW,2013-05-13 04:56:00,